sensor_id;sensor_type;location;lat;lon;timestamp;pressure;altitude;pressure_sealevel;temperature;humidity
23253;BME280;11795;47.054;15.408;2023-06-04T00:00:04;97520;;;17.1;62.1
23253;BME280;11795;47.054;15.408;2023-06-04T00:02:00;97520;;;17.0;62.7
23253;BME280;11795;47.054;15.408;2023-06-04T00:04:00;97510;;;17.2;62.1
23253;BME280;11795;47.054;15.408;2023-06-04T00:06:01;97510;;;17.0;62.6
23253;BME280;11795;47.054;15.408;2023-06-04T00:08:00;97510;;;17.0;62.9
23253;BME280;11795;47.054;15.408;2023-06-04T00:10:00;97510;;;17.1;62.6
23253;BME280;11795;47.054;15.408;2023-06-04T00:12:02;97510;;;17.0;62.9
23253;BME280;11795;47.054;15.408;2023-06-04T00:14:00;97510;;;17.1;62.4
23253;BME280;11795;47.054;15.408;2023-06-04T00:16:00;97510;;;17.0;62.9
23253;BME280;11795;47.054;15.408;2023-06-04T00:18:00;97510;;;16.9;63.2
23253;BME280;11795;47.054;15.408;2023-06-04T00:20:00;97500;;;17.1;62.6
23253;BME280;11795;47.054;15.408;2023-06-04T00:22:00;97510;;;16.9;63.2
23253;BME280;11795;47.054;15.408;2023-06-04T00:24:01;97510;;;17.1;62.8
23253;BME280;11795;47.054;15.408;2023-06-04T00:26:00;97510;;;17.0;63.3
23253;BME280;11795;47.054;15.408;2023-06-04T00:28:00;97510;;;16.9;63.7
23253;BME280;11795;47.054;15.408;2023-06-04T00:30:00;97510;;;17.0;63.2
23253;BME280;11795;47.054;15.408;2023-06-04T00:32:00;97510;;;16.9;63.6
23253;BME280;11795;47.054;15.408;2023-06-04T00:34:00;97500;;;17.1;63.0
23253;BME280;11795;47.054;15.408;2023-06-04T00:36:00;97500;;;16.9;63.5
23253;BME280;11795;47.054;15.408;2023-06-04T00:38:00;97500;;;16.9;63.7
23253;BME280;11795;47.054;15.408;2023-06-04T00:40:01;97500;;;17.0;63.3
23253;BME280;11795;47.054;15.408;2023-06-04T00:42:00;97500;;;16.9;63.5
23253;BME280;11795;47.054;15.408;2023-06-04T00:44:01;97490;;;17.1;62.8
23253;BME280;11795;47.054;15.408;2023-06-04T00:46:01;97500;;;16.9;63.3
23253;BME280;11795;47.054;15.408;2023-06-04T00:48:00;97500;;;16.8;63.7
23253;BME280;11795;47.054;15.408;2023-06-04T00:50:01;97490;;;16.9;63.3
23253;BME280;11795;47.054;15.408;2023-06-04T00:52:01;97490;;;16.9;63.6
23253;BME280;11795;47.054;15.408;2023-06-04T00:54:04;97490;;;17.0;63.3
23253;BME280;11795;47.054;15.408;2023-06-04T00:56:01;97490;;;16.9;63.7
23253;BME280;11795;47.054;15.408;2023-06-04T00:58:01;97490;;;16.8;63.8
23253;BME280;11795;47.054;15.408;2023-06-04T01:00:00;97490;;;17.0;63.4
23253;BME280;11795;47.054;15.408;2023-06-04T01:02:05;97490;;;16.8;64.0
23253;BME280;11795;47.054;15.408;2023-06-04T01:04:02;97490;;;17.0;63.3
23253;BME280;11795;47.054;15.408;2023-06-04T01:06:08;97490;;;16.9;63.7
23253;BME280;11795;47.054;15.408;2023-06-04T01:08:00;97490;;;16.8;64.1
23253;BME280;11795;47.054;15.408;2023-06-04T01:10:01;97480;;;17.0;63.8
23253;BME280;11795;47.054;15.408;2023-06-04T01:12:03;97480;;;16.9;64.0
23253;BME280;11795;47.054;15.408;2023-06-04T01:14:01;97480;;;17.0;63.3
23253;BME280;11795;47.054;15.408;2023-06-04T01:16:01;97480;;;16.9;63.5
23253;BME280;11795;47.054;15.408;2023-06-04T01:18:03;97490;;;16.8;63.7
23253;BME280;11795;47.054;15.408;2023-06-04T01:20:13;97480;;;16.9;63.3
23253;BME280;11795;47.054;15.408;2023-06-04T01:22:03;97490;;;16.9;63.4
23253;BME280;11795;47.054;15.408;2023-06-04T01:24:01;97480;;;17.0;63.0
23253;BME280;11795;47.054;15.408;2023-06-04T01:26:04;97480;;;16.8;63.2
23253;BME280;11795;47.054;15.408;2023-06-04T01:28:01;97480;;;16.7;63.5
23253;BME280;11795;47.054;15.408;2023-06-04T01:30:01;97480;;;16.9;63.0
23253;BME280;11795;47.054;15.408;2023-06-04T01:32:01;97480;;;16.7;63.4
23253;BME280;11795;47.054;15.408;2023-06-04T01:34:00;97470;;;17.0;62.8
23253;BME280;11795;47.054;15.408;2023-06-04T01:36:01;97480;;;16.8;63.2
23253;BME280;11795;47.054;15.408;2023-06-04T01:38:00;97480;;;16.7;63.5
23253;BME280;11795;47.054;15.408;2023-06-04T01:40:00;97480;;;16.8;63.2
23253;BME280;11795;47.054;15.408;2023-06-04T01:42:00;97480;;;16.7;63.6
23253;BME280;11795;47.054;15.408;2023-06-04T01:44:00;97480;;;16.9;63.2
23253;BME280;11795;47.054;15.408;2023-06-04T01:46:00;97480;;;16.8;63.6
23253;BME280;11795;47.054;15.408;2023-06-04T01:48:01;97480;;;16.7;63.9
23253;BME280;11795;47.054;15.408;2023-06-04T01:50:00;97480;;;16.9;63.6
23253;BME280;11795;47.054;15.408;2023-06-04T01:52:00;97480;;;16.7;64.1
23253;BME280;11795;47.054;15.408;2023-06-04T01:54:00;97480;;;16.9;64.0
23253;BME280;11795;47.054;15.408;2023-06-04T01:56:01;97490;;;16.8;64.6
23253;BME280;11795;47.054;15.408;2023-06-04T01:58:00;97480;;;16.7;65.2
23253;BME280;11795;47.054;15.408;2023-06-04T02:00:01;97480;;;16.8;65.0
23253;BME280;11795;47.054;15.408;2023-06-04T02:02:02;97480;;;16.7;65.5
23253;BME280;11795;47.054;15.408;2023-06-04T02:04:00;97480;;;16.9;65.0
23253;BME280;11795;47.054;15.408;2023-06-04T02:06:00;97480;;;16.7;65.3
23253;BME280;11795;47.054;15.408;2023-06-04T02:08:02;97480;;;16.6;65.5
23253;BME280;11795;47.054;15.408;2023-06-04T02:10:00;97480;;;16.8;64.9
23253;BME280;11795;47.054;15.408;2023-06-04T02:12:01;97480;;;16.7;65.2
23253;BME280;11795;47.054;15.408;2023-06-04T02:14:00;97470;;;16.9;64.6
23253;BME280;11795;47.054;15.408;2023-06-04T02:16:00;97470;;;16.7;64.8
23253;BME280;11795;47.054;15.408;2023-06-04T02:18:12;97470;;;16.9;64.4
23253;BME280;11795;47.054;15.408;2023-06-04T02:20:00;97470;;;16.8;64.3
23253;BME280;11795;47.054;15.408;2023-06-04T02:22:00;97470;;;16.7;64.8
23253;BME280;11795;47.054;15.408;2023-06-04T02:24:00;97470;;;16.9;64.4
23253;BME280;11795;47.054;15.408;2023-06-04T02:26:00;97480;;;16.7;64.6
23253;BME280;11795;47.054;15.408;2023-06-04T02:28:01;97470;;;16.6;64.8
23253;BME280;11795;47.054;15.408;2023-06-04T02:30:00;97470;;;16.8;64.0
23253;BME280;11795;47.054;15.408;2023-06-04T02:32:00;97470;;;16.6;64.4
23253;BME280;11795;47.054;15.408;2023-06-04T02:34:00;97460;;;16.8;63.9
23253;BME280;11795;47.054;15.408;2023-06-04T02:36:01;97460;;;16.7;64.3
23253;BME280;11795;47.054;15.408;2023-06-04T02:38:00;97470;;;16.6;64.8
23253;BME280;11795;47.054;15.408;2023-06-04T02:40:01;97470;;;16.8;64.7
23253;BME280;11795;47.054;15.408;2023-06-04T02:42:00;97460;;;16.7;65.2
23253;BME280;11795;47.054;15.408;2023-06-04T02:44:00;97460;;;16.8;65.3
23253;BME280;11795;47.054;15.408;2023-06-04T02:46:00;97460;;;16.7;65.6
23253;BME280;11795;47.054;15.408;2023-06-04T02:48:00;97470;;;16.6;66.2
23253;BME280;11795;47.054;15.408;2023-06-04T02:50:00;97470;;;16.8;65.7
23253;BME280;11795;47.054;15.408;2023-06-04T02:52:00;97470;;;16.6;66.1
23253;BME280;11795;47.054;15.408;2023-06-04T02:54:00;97470;;;16.8;66.0
23253;BME280;11795;47.054;15.408;2023-06-04T02:56:00;97470;;;16.6;66.4
23253;BME280;11795;47.054;15.408;2023-06-04T02:58:00;97480;;;16.5;67.0
23253;BME280;11795;47.054;15.408;2023-06-04T03:00:01;97470;;;16.7;66.4
23253;BME280;11795;47.054;15.408;2023-06-04T03:02:00;97470;;;16.5;66.9
23253;BME280;11795;47.054;15.408;2023-06-04T03:04:03;97470;;;16.6;67.1
23253;BME280;11795;47.054;15.408;2023-06-04T03:06:02;97460;;;16.3;67.4
23253;BME280;11795;47.054;15.408;2023-06-04T03:08:01;97460;;;16.3;67.4
23253;BME280;11795;47.054;15.408;2023-06-04T03:10:00;97460;;;16.5;66.2
23253;BME280;11795;47.054;15.408;2023-06-04T03:12:01;97470;;;16.4;66.5
23253;BME280;11795;47.054;15.408;2023-06-04T03:14:00;97470;;;16.5;66.2
23253;BME280;11795;47.054;15.408;2023-06-04T03:16:01;97470;;;16.4;66.3
23253;BME280;11795;47.054;15.408;2023-06-04T03:18:00;97470;;;16.3;66.6
23253;BME280;11795;47.054;15.408;2023-06-04T03:20:00;97470;;;16.5;66.1
23253;BME280;11795;47.054;15.408;2023-06-04T03:22:01;97470;;;16.4;66.5
23253;BME280;11795;47.054;15.408;2023-06-04T03:24:00;97480;;;16.5;66.2
23253;BME280;11795;47.054;15.408;2023-06-04T03:26:01;97480;;;16.4;66.1
23253;BME280;11795;47.054;15.408;2023-06-04T03:28:00;97480;;;16.3;66.6
23253;BME280;11795;47.054;15.408;2023-06-04T03:30:00;97480;;;16.5;66.3
23253;BME280;11795;47.054;15.408;2023-06-04T03:32:01;97490;;;16.3;67.2
23253;BME280;11795;47.054;15.408;2023-06-04T03:34:00;97490;;;16.4;67.6
23253;BME280;11795;47.054;15.408;2023-06-04T03:36:00;97490;;;16.3;68.1
23253;BME280;11795;47.054;15.408;2023-06-04T03:38:00;97490;;;16.2;68.6
23253;BME280;11795;47.054;15.408;2023-06-04T03:40:02;97490;;;16.4;68.0
23253;BME280;11795;47.054;15.408;2023-06-04T03:42:01;97490;;;16.2;68.6
23253;BME280;11795;47.054;15.408;2023-06-04T03:44:00;97490;;;16.4;68.4
23253;BME280;11795;47.054;15.408;2023-06-04T03:46:00;97490;;;16.3;68.4
23253;BME280;11795;47.054;15.408;2023-06-04T03:48:00;97490;;;16.2;68.6
23253;BME280;11795;47.054;15.408;2023-06-04T03:50:00;97490;;;16.4;68.1
23253;BME280;11795;47.054;15.408;2023-06-04T03:52:00;97490;;;16.3;68.6
23253;BME280;11795;47.054;15.408;2023-06-04T03:54:00;97490;;;16.4;68.6
23253;BME280;11795;47.054;15.408;2023-06-04T03:56:00;97490;;;16.4;68.5
23253;BME280;11795;47.054;15.408;2023-06-04T03:58:00;97500;;;16.3;68.9
23253;BME280;11795;47.054;15.408;2023-06-04T04:00:00;97490;;;16.5;68.4
23253;BME280;11795;47.054;15.408;2023-06-04T04:02:00;97500;;;16.3;69.0
23253;BME280;11795;47.054;15.408;2023-06-04T04:04:01;97490;;;16.4;68.7
23253;BME280;11795;47.054;15.408;2023-06-04T04:06:00;97500;;;16.4;68.6
23253;BME280;11795;47.054;15.408;2023-06-04T04:08:00;97500;;;16.4;68.9
23253;BME280;11795;47.054;15.408;2023-06-04T04:10:00;97500;;;16.6;68.0
23253;BME280;11795;47.054;15.408;2023-06-04T04:12:00;97500;;;16.4;68.4
23253;BME280;11795;47.054;15.408;2023-06-04T04:14:01;97500;;;16.5;68.3
23253;BME280;11795;47.054;15.408;2023-06-04T04:16:01;97500;;;16.5;68.2
23253;BME280;11795;47.054;15.408;2023-06-04T04:18:01;97510;;;16.5;68.8
23253;BME280;11795;47.054;15.408;2023-06-04T04:20:01;97510;;;16.7;68.6
23253;BME280;11795;47.054;15.408;2023-06-04T04:22:00;97500;;;16.6;69.1
23253;BME280;11795;47.054;15.408;2023-06-04T04:24:00;97510;;;16.6;69.0
23253;BME280;11795;47.054;15.408;2023-06-04T04:26:01;97510;;;16.6;68.9
23253;BME280;11795;47.054;15.408;2023-06-04T04:28:02;97510;;;16.6;69.2
23253;BME280;11795;47.054;15.408;2023-06-04T04:30:00;97510;;;16.8;68.4
23253;BME280;11795;47.054;15.408;2023-06-04T04:32:02;97510;;;16.6;68.7
23253;BME280;11795;47.054;15.408;2023-06-04T04:34:00;97510;;;16.6;68.6
23253;BME280;11795;47.054;15.408;2023-06-04T04:36:01;97510;;;16.7;67.9
23253;BME280;11795;47.054;15.408;2023-06-04T04:38:03;97510;;;16.6;68.2
23253;BME280;11795;47.054;15.408;2023-06-04T04:40:00;97510;;;16.9;67.5
23253;BME280;11795;47.054;15.408;2023-06-04T04:42:00;97510;;;16.7;67.8
23253;BME280;11795;47.054;15.408;2023-06-04T04:44:02;97510;;;16.8;67.5
23253;BME280;11795;47.054;15.408;2023-06-04T04:46:00;97510;;;16.9;66.8
23253;BME280;11795;47.054;15.408;2023-06-04T04:48:00;97520;;;16.8;66.7
23253;BME280;11795;47.054;15.408;2023-06-04T04:50:00;97510;;;17.0;66.1
23253;BME280;11795;47.054;15.408;2023-06-04T04:52:00;97520;;;16.9;66.9
23253;BME280;11795;47.054;15.408;2023-06-04T04:54:01;97520;;;16.8;67.2
23253;BME280;11795;47.054;15.408;2023-06-04T04:56:00;97520;;;16.9;66.9
23253;BME280;11795;47.054;15.408;2023-06-04T04:58:00;97520;;;16.9;67.2
23253;BME280;11795;47.054;15.408;2023-06-04T05:00:01;97520;;;17.1;66.8
23253;BME280;11795;47.054;15.408;2023-06-04T05:02:00;97520;;;17.0;67.4
23253;BME280;11795;47.054;15.408;2023-06-04T05:04:00;97520;;;17.0;67.3
23253;BME280;11795;47.054;15.408;2023-06-04T05:06:00;97520;;;17.1;66.6
23253;BME280;11795;47.054;15.408;2023-06-04T05:08:00;97520;;;17.1;66.8
23253;BME280;11795;47.054;15.408;2023-06-04T05:10:00;97520;;;17.3;65.9
23253;BME280;11795;47.054;15.408;2023-06-04T05:12:00;97520;;;17.2;66.0
23253;BME280;11795;47.054;15.408;2023-06-04T05:14:00;97520;;;17.2;66.1
23253;BME280;11795;47.054;15.408;2023-06-04T05:16:07;97530;;;17.3;65.5
23253;BME280;11795;47.054;15.408;2023-06-04T05:18:03;97530;;;17.3;66.1
23253;BME280;11795;47.054;15.408;2023-06-04T05:20:01;97530;;;17.5;65.2
23253;BME280;11795;47.054;15.408;2023-06-04T05:22:00;97530;;;17.4;65.7
23253;BME280;11795;47.054;15.408;2023-06-04T05:24:00;97530;;;17.4;65.6
23253;BME280;11795;47.054;15.408;2023-06-04T05:26:01;97530;;;17.5;65.0
23253;BME280;11795;47.054;15.408;2023-06-04T05:28:00;97530;;;17.5;65.0
23253;BME280;11795;47.054;15.408;2023-06-04T05:30:04;97530;;;17.7;64.2
23253;BME280;11795;47.054;15.408;2023-06-04T05:32:00;97530;;;17.6;64.5
23253;BME280;11795;47.054;15.408;2023-06-04T05:34:01;97540;;;17.6;64.3
23253;BME280;11795;47.054;15.408;2023-06-04T05:36:00;97530;;;17.7;63.7
23253;BME280;11795;47.054;15.408;2023-06-04T05:38:00;97530;;;17.5;63.9
23253;BME280;11795;47.054;15.408;2023-06-04T05:40:00;97530;;;17.7;63.5
23253;BME280;11795;47.054;15.408;2023-06-04T05:42:00;97530;;;17.6;63.7
23253;BME280;11795;47.054;15.408;2023-06-04T05:44:00;97530;;;17.5;63.7
23253;BME280;11795;47.054;15.408;2023-06-04T05:46:00;97530;;;17.6;63.1
23253;BME280;11795;47.054;15.408;2023-06-04T05:48:01;97540;;;17.6;63.4
23253;BME280;11795;47.054;15.408;2023-06-04T05:50:00;97540;;;17.7;62.5
23253;BME280;11795;47.054;15.408;2023-06-04T05:52:01;97540;;;17.6;63.0
23253;BME280;11795;47.054;15.408;2023-06-04T05:54:01;97540;;;17.6;63.2
23253;BME280;11795;47.054;15.408;2023-06-04T05:56:00;97540;;;17.7;62.7
23253;BME280;11795;47.054;15.408;2023-06-04T05:58:00;97540;;;17.7;63.2
23253;BME280;11795;47.054;15.408;2023-06-04T06:00:01;97540;;;18.0;62.5
23253;BME280;11795;47.054;15.408;2023-06-04T06:02:01;97540;;;17.8;62.6
23253;BME280;11795;47.054;15.408;2023-06-04T06:04:00;97550;;;17.8;62.5
23253;BME280;11795;47.054;15.408;2023-06-04T06:06:01;97550;;;18.0;62.1
23253;BME280;11795;47.054;15.408;2023-06-04T06:08:00;97550;;;17.9;62.2
23253;BME280;11795;47.054;15.408;2023-06-04T06:10:00;97550;;;18.0;60.8
23253;BME280;11795;47.054;15.408;2023-06-04T06:12:01;97550;;;18.0;60.9
23253;BME280;11795;47.054;15.408;2023-06-04T06:14:01;97550;;;18.0;61.3
23253;BME280;11795;47.054;15.408;2023-06-04T06:16:00;97550;;;18.1;60.7
23253;BME280;11795;47.054;15.408;2023-06-04T06:18:01;97560;;;18.1;60.6
23253;BME280;11795;47.054;15.408;2023-06-04T06:20:00;97560;;;18.3;60.4
23253;BME280;11795;47.054;15.408;2023-06-04T06:22:00;97560;;;18.2;61.0
23253;BME280;11795;47.054;15.408;2023-06-04T06:24:00;97560;;;18.2;61.0
23253;BME280;11795;47.054;15.408;2023-06-04T06:26:02;97560;;;18.5;60.5
23253;BME280;11795;47.054;15.408;2023-06-04T06:28:00;97560;;;18.4;60.8
23253;BME280;11795;47.054;15.408;2023-06-04T06:30:01;97560;;;18.7;60.0
23253;BME280;11795;47.054;15.408;2023-06-04T06:32:00;97560;;;18.6;60.1
23253;BME280;11795;47.054;15.408;2023-06-04T06:34:00;97560;;;18.6;59.8
23253;BME280;11795;47.054;15.408;2023-06-04T06:36:00;97560;;;18.8;59.0
23253;BME280;11795;47.054;15.408;2023-06-04T06:38:00;97560;;;18.8;59.0
23253;BME280;11795;47.054;15.408;2023-06-04T06:40:00;97570;;;19.0;58.2
23253;BME280;11795;47.054;15.408;2023-06-04T06:42:00;97560;;;19.0;57.2
23253;BME280;11795;47.054;15.408;2023-06-04T06:44:00;97560;;;18.9;57.9
23253;BME280;11795;47.054;15.408;2023-06-04T06:46:00;97560;;;19.0;57.1
23253;BME280;11795;47.054;15.408;2023-06-04T06:48:00;97570;;;18.9;57.7
23253;BME280;11795;47.054;15.408;2023-06-04T06:50:01;97570;;;19.2;57.3
23253;BME280;11795;47.054;15.408;2023-06-04T06:52:00;97570;;;19.3;57.2
23253;BME280;11795;47.054;15.408;2023-06-04T06:54:00;97570;;;19.4;56.5
23253;BME280;11795;47.054;15.408;2023-06-04T06:56:00;97570;;;19.6;55.2
23253;BME280;11795;47.054;15.408;2023-06-04T06:58:00;97570;;;19.6;56.3
23253;BME280;11795;47.054;15.408;2023-06-04T07:00:00;97570;;;19.9;55.7
23253;BME280;11795;47.054;15.408;2023-06-04T07:02:00;97570;;;19.9;55.2
23253;BME280;11795;47.054;15.408;2023-06-04T07:04:00;97570;;;19.9;55.5
23253;BME280;11795;47.054;15.408;2023-06-04T07:06:00;97570;;;20.2;55.2
23253;BME280;11795;47.054;15.408;2023-06-04T07:08:02;97570;;;20.3;54.9
23253;BME280;11795;47.054;15.408;2023-06-04T07:10:01;97570;;;20.5;53.2
23253;BME280;11795;47.054;15.408;2023-06-04T07:12:00;97560;;;20.5;54.3
23253;BME280;11795;47.054;15.408;2023-06-04T07:14:02;97560;;;20.5;54.4
23253;BME280;11795;47.054;15.408;2023-06-04T07:16:01;97560;;;20.7;53.5
23253;BME280;11795;47.054;15.408;2023-06-04T07:18:00;97560;;;20.6;53.4
23253;BME280;11795;47.054;15.408;2023-06-04T07:20:00;97560;;;20.8;53.2
23253;BME280;11795;47.054;15.408;2023-06-04T07:22:00;97560;;;20.6;53.1
23253;BME280;11795;47.054;15.408;2023-06-04T07:24:00;97560;;;20.5;52.7
23253;BME280;11795;47.054;15.408;2023-06-04T07:26:01;97550;;;20.7;52.7
23253;BME280;11795;47.054;15.408;2023-06-04T07:28:03;97560;;;20.6;52.7
23253;BME280;11795;47.054;15.408;2023-06-04T07:30:00;97550;;;20.8;52.1
23253;BME280;11795;47.054;15.408;2023-06-04T07:32:00;97560;;;20.6;51.7
23253;BME280;11795;47.054;15.408;2023-06-04T07:34:00;97560;;;20.5;52.3
23253;BME280;11795;47.054;15.408;2023-06-04T07:36:00;97550;;;20.7;52.4
23253;BME280;11795;47.054;15.408;2023-06-04T07:38:00;97560;;;20.6;53.2
23253;BME280;11795;47.054;15.408;2023-06-04T07:40:00;97550;;;20.9;52.3
23253;BME280;11795;47.054;15.408;2023-06-04T07:42:00;97550;;;20.9;51.8
23253;BME280;11795;47.054;15.408;2023-06-04T07:44:00;97550;;;20.9;52.0
23253;BME280;11795;47.054;15.408;2023-06-04T07:46:00;97550;;;21.1;51.7
23253;BME280;11795;47.054;15.408;2023-06-04T07:48:00;97550;;;21.1;52.0
23253;BME280;11795;47.054;15.408;2023-06-04T07:50:00;97550;;;21.4;51.6
23253;BME280;11795;47.054;15.408;2023-06-04T07:52:00;97550;;;21.4;50.9
23253;BME280;11795;47.054;15.408;2023-06-04T07:54:01;97550;;;21.3;50.8
23253;BME280;11795;47.054;15.408;2023-06-04T07:56:00;97550;;;21.4;50.9
23253;BME280;11795;47.054;15.408;2023-06-04T07:58:00;97550;;;21.4;50.9
23253;BME280;11795;47.054;15.408;2023-06-04T08:00:05;97550;;;21.5;50.3
23253;BME280;11795;47.054;15.408;2023-06-04T08:02:00;97550;;;21.4;50.6
23253;BME280;11795;47.054;15.408;2023-06-04T08:04:00;97550;;;21.5;50.8
23253;BME280;11795;47.054;15.408;2023-06-04T08:06:00;97550;;;21.6;50.3
23253;BME280;11795;47.054;15.408;2023-06-04T08:08:00;97550;;;21.6;50.5
23253;BME280;11795;47.054;15.408;2023-06-04T08:10:00;97550;;;21.8;50.4
23253;BME280;11795;47.054;15.408;2023-06-04T08:12:00;97560;;;21.8;50.1
23253;BME280;11795;47.054;15.408;2023-06-04T08:14:00;97560;;;21.8;50.2
23253;BME280;11795;47.054;15.408;2023-06-04T08:16:00;97560;;;21.9;49.1
23253;BME280;11795;47.054;15.408;2023-06-04T08:18:01;97570;;;21.8;49.8
23253;BME280;11795;47.054;15.408;2023-06-04T08:20:01;97570;;;21.9;50.0
23253;BME280;11795;47.054;15.408;2023-06-04T08:22:00;97570;;;21.9;49.6
23253;BME280;11795;47.054;15.408;2023-06-04T08:24:00;97570;;;21.6;49.5
23253;BME280;11795;47.054;15.408;2023-06-04T08:26:00;97560;;;21.9;49.4
23253;BME280;11795;47.054;15.408;2023-06-04T08:28:00;97570;;;21.8;49.5
23253;BME280;11795;47.054;15.408;2023-06-04T08:30:00;97570;;;21.9;49.5
23253;BME280;11795;47.054;15.408;2023-06-04T08:32:00;97570;;;21.8;49.8
23253;BME280;11795;47.054;15.408;2023-06-04T08:34:00;97570;;;21.6;50.0
23253;BME280;11795;47.054;15.408;2023-06-04T08:36:00;97570;;;21.9;49.8
23253;BME280;11795;47.054;15.408;2023-06-04T08:38:00;97570;;;21.9;49.7
23253;BME280;11795;47.054;15.408;2023-06-04T08:40:00;97560;;;22.0;49.5
23253;BME280;11795;47.054;15.408;2023-06-04T08:42:04;97570;;;21.9;49.7
23253;BME280;11795;47.054;15.408;2023-06-04T08:44:04;97560;;;21.9;49.9
23253;BME280;11795;47.054;15.408;2023-06-04T08:46:05;97560;;;22.1;49.4
23253;BME280;11795;47.054;15.408;2023-06-04T08:48:00;97560;;;22.1;49.5
23253;BME280;11795;47.054;15.408;2023-06-04T08:50:01;97560;;;22.3;49.0
23253;BME280;11795;47.054;15.408;2023-06-04T08:52:00;97560;;;22.4;49.1
23253;BME280;11795;47.054;15.408;2023-06-04T08:54:00;97570;;;22.5;48.8
23253;BME280;11795;47.054;15.408;2023-06-04T08:56:00;97560;;;22.7;48.4
23253;BME280;11795;47.054;15.408;2023-06-04T08:58:00;97570;;;22.7;48.4
23253;BME280;11795;47.054;15.408;2023-06-04T09:00:02;97570;;;22.9;48.2
23253;BME280;11795;47.054;15.408;2023-06-04T09:02:01;97560;;;23.0;48.0
23253;BME280;11795;47.054;15.408;2023-06-04T09:04:02;97560;;;22.6;47.4
23253;BME280;11795;47.054;15.408;2023-06-04T09:06:01;97560;;;22.6;47.4
23253;BME280;11795;47.054;15.408;2023-06-04T09:08:01;97560;;;22.6;48.0
23253;BME280;11795;47.054;15.408;2023-06-04T09:10:01;97560;;;22.8;48.0
23253;BME280;11795;47.054;15.408;2023-06-04T09:12:01;97560;;;23.0;48.4
23253;BME280;11795;47.054;15.408;2023-06-04T09:14:03;97560;;;22.9;48.1
23253;BME280;11795;47.054;15.408;2023-06-04T09:16:01;97560;;;23.2;48.2
23253;BME280;11795;47.054;15.408;2023-06-04T09:18:00;97560;;;23.0;47.2
23253;BME280;11795;47.054;15.408;2023-06-04T09:20:00;97560;;;23.2;47.2
23253;BME280;11795;47.054;15.408;2023-06-04T09:22:03;97560;;;23.4;46.5
23253;BME280;11795;47.054;15.408;2023-06-04T09:24:00;97570;;;23.3;46.5
23253;BME280;11795;47.054;15.408;2023-06-04T09:26:08;97570;;;23.6;46.3
23253;BME280;11795;47.054;15.408;2023-06-04T09:28:05;97570;;;23.5;46.6
23253;BME280;11795;47.054;15.408;2023-06-04T09:30:00;97560;;;23.4;46.6
23253;BME280;11795;47.054;15.408;2023-06-04T09:32:00;97560;;;23.5;46.9
23253;BME280;11795;47.054;15.408;2023-06-04T09:34:00;97560;;;23.4;47.2
23253;BME280;11795;47.054;15.408;2023-06-04T09:36:00;97560;;;23.3;47.2
23253;BME280;11795;47.054;15.408;2023-06-04T09:38:00;97560;;;23.3;47.7
23253;BME280;11795;47.054;15.408;2023-06-04T09:40:00;97560;;;23.4;47.2
23253;BME280;11795;47.054;15.408;2023-06-04T09:42:02;97560;;;23.6;46.8
23253;BME280;11795;47.054;15.408;2023-06-04T09:44:03;97560;;;23.7;47.3
23253;BME280;11795;47.054;15.408;2023-06-04T09:46:10;97560;;;23.8;46.3
23253;BME280;11795;47.054;15.408;2023-06-04T09:48:01;97560;;;23.5;47.7
23253;BME280;11795;47.054;15.408;2023-06-04T09:50:00;97560;;;23.6;47.5
23253;BME280;11795;47.054;15.408;2023-06-04T09:52:00;97560;;;23.7;46.7
23253;BME280;11795;47.054;15.408;2023-06-04T09:54:03;97560;;;23.4;46.9
23253;BME280;11795;47.054;15.408;2023-06-04T09:56:01;97560;;;23.6;47.1
23253;BME280;11795;47.054;15.408;2023-06-04T09:58:01;97560;;;23.6;48.1
23253;BME280;11795;47.054;15.408;2023-06-04T10:00:01;97560;;;23.3;47.0
23253;BME280;11795;47.054;15.408;2023-06-04T10:02:01;97560;;;23.6;46.9
23253;BME280;11795;47.054;15.408;2023-06-04T10:04:03;97560;;;23.7;46.7
23253;BME280;11795;47.054;15.408;2023-06-04T10:06:02;97550;;;23.9;46.1
23253;BME280;11795;47.054;15.408;2023-06-04T10:08:03;97550;;;23.8;46.2
23253;BME280;11795;47.054;15.408;2023-06-04T10:10:01;97550;;;23.7;46.6
23253;BME280;11795;47.054;15.408;2023-06-04T10:12:02;97540;;;24.0;47.7
23253;BME280;11795;47.054;15.408;2023-06-04T10:14:03;97540;;;23.9;46.5
23253;BME280;11795;47.054;15.408;2023-06-04T10:16:01;97540;;;24.2;46.3
23253;BME280;11795;47.054;15.408;2023-06-04T10:18:02;97540;;;24.2;46.3
23253;BME280;11795;47.054;15.408;2023-06-04T10:20:01;97540;;;24.4;46.1
23253;BME280;11795;47.054;15.408;2023-06-04T10:22:01;97540;;;24.7;46.1
23253;BME280;11795;47.054;15.408;2023-06-04T10:24:00;97540;;;24.8;45.8
23253;BME280;11795;47.054;15.408;2023-06-04T10:26:01;97540;;;24.9;44.9
23253;BME280;11795;47.054;15.408;2023-06-04T10:28:01;97540;;;24.6;45.1
23253;BME280;11795;47.054;15.408;2023-06-04T10:30:01;97550;;;24.1;45.9
23253;BME280;11795;47.054;15.408;2023-06-04T10:32:00;97540;;;24.3;45.9
23253;BME280;11795;47.054;15.408;2023-06-04T10:34:00;97540;;;24.2;45.6
23253;BME280;11795;47.054;15.408;2023-06-04T10:36:18;97540;;;24.4;46.0
23253;BME280;11795;47.054;15.408;2023-06-04T10:38:05;97530;;;24.4;46.8
23253;BME280;11795;47.054;15.408;2023-06-04T10:40:00;97540;;;24.4;45.9
23253;BME280;11795;47.054;15.408;2023-06-04T10:42:01;97540;;;24.5;45.5
23253;BME280;11795;47.054;15.408;2023-06-04T10:44:01;97540;;;24.3;46.0
23253;BME280;11795;47.054;15.408;2023-06-04T10:46:11;97530;;;24.2;45.9
23253;BME280;11795;47.054;15.408;2023-06-04T10:48:01;97530;;;24.0;46.4
23253;BME280;11795;47.054;15.408;2023-06-04T10:50:07;97530;;;23.6;48.1
23253;BME280;11795;47.054;15.408;2023-06-04T10:52:10;97540;;;23.6;47.7
23253;BME280;11795;47.054;15.408;2023-06-04T10:54:01;97530;;;23.5;47.7
23253;BME280;11795;47.054;15.408;2023-06-04T10:56:00;97530;;;23.8;47.5
23253;BME280;11795;47.054;15.408;2023-06-04T10:58:01;97530;;;23.5;47.9
23253;BME280;11795;47.054;15.408;2023-06-04T11:00:01;97530;;;23.5;47.8
23253;BME280;11795;47.054;15.408;2023-06-04T11:02:05;97530;;;23.6;47.4
23253;BME280;11795;47.054;15.408;2023-06-04T11:04:00;97530;;;23.4;48.2
23253;BME280;11795;47.054;15.408;2023-06-04T11:06:00;97530;;;23.6;47.8
23253;BME280;11795;47.054;15.408;2023-06-04T11:08:01;97530;;;23.5;48.3
23253;BME280;11795;47.054;15.408;2023-06-04T11:10:00;97530;;;23.5;48.2